Time;durP1;ratioP1;P1;durP2;ratioP2;P2;SDS_P1;SDS_P2;PMS_P1;PMS_P2;Temp;Humidity;BMP_temperature;BMP_pressure;BME280_temperature;BME280_humidity;BME280_pressure;Samples;Min_cycle;Max_cycle;Signal;HPM_P1;HPM_P2
2023/09/20 00:00:29;;;;;;;5.93;2.80;;;;;;;;;;4972957;28;20133;-63
2023/09/20 00:02:56;;;;;;;4.88;2.72;;;;;;;;;;4972884;28;20125;-63
2023/09/20 00:05:22;;;;;;;5.05;2.60;;;;;;;;;;4972747;28;20072;-63
2023/09/20 00:07:54;;;;;;;3.05;1.90;;;;;;;;;;4967926;28;20053;-65
2023/09/20 00:10:21;;;;;;;4.72;2.08;;;;;;;;;;4957148;28;20459;-64
2023/09/20 00:12:48;;;;;;;3.35;1.88;;;;;;;;;;4969083;28;20058;-63
2023/09/20 00:15:15;;;;;;;3.38;1.88;;;;;;;;;;4953408;28;20051;-63
2023/09/20 00:17:41;;;;;;;2.83;1.60;;;;;;;;;;4953061;28;20126;-64
2023/09/20 00:20:12;;;;;;;3.42;1.67;;;;;;;;;;4953079;28;20094;-64
2023/09/20 00:22:41;;;;;;;3.30;1.60;;;;;;;;;;4952967;28;20051;-63
2023/09/20 00:25:10;;;;;;;4.63;2.03;;;;;;;;;;4958191;28;20434;-63
2023/09/20 00:27:38;;;;;;;3.57;1.90;;;;;;;;;;4966254;28;20051;-64
2023/09/20 00:30:09;;;;;;;3.55;2.10;;;;;;;;;;4962889;28;20294;-63
2023/09/20 00:32:37;;;;;;;3.50;1.75;;;;;;;;;;4968356;28;20419;-64
2023/09/20 00:35:04;;;;;;;4.45;1.90;;;;;;;;;;4963165;28;20098;-63
2023/09/20 00:37:31;;;;;;;3.58;1.75;;;;;;;;;;4956632;28;20467;-63
2023/09/20 00:39:58;;;;;;;3.13;1.58;;;;;;;;;;4956375;28;20047;-63
2023/09/20 00:42:27;;;;;;;3.45;1.70;;;;;;;;;;4956840;28;20131;-63
2023/09/20 00:44:54;;;;;;;2.72;1.65;;;;;;;;;;4960555;28;20618;-63
2023/09/20 00:47:21;;;;;;;4.40;2.13;;;;;;;;;;4962780;28;20130;-63
2023/09/20 00:49:48;;;;;;;3.13;1.50;;;;;;;;;;4960152;28;20077;-63
2023/09/20 00:52:15;;;;;;;4.50;2.00;;;;;;;;;;4962552;28;20134;-63
2023/09/20 00:54:42;;;;;;;4.82;1.85;;;;;;;;;;4962349;28;20134;-63
2023/09/20 00:57:10;;;;;;;3.00;1.60;;;;;;;;;;4962469;28;20054;-63
2023/09/20 00:59:40;;;;;;;2.63;1.35;;;;;;;;;;4956230;28;20130;-63
2023/09/20 01:02:07;;;;;;;4.40;1.60;;;;;;;;;;4956315;28;20102;-63
2023/09/20 01:04:36;;;;;;;4.38;1.60;;;;;;;;;;4964147;28;20138;-62
2023/09/20 01:07:04;;;;;;;2.27;1.60;;;;;;;;;;4965381;28;20043;-63
2023/09/20 01:09:30;;;;;;;3.40;1.23;;;;;;;;;;4960336;28;20050;-63
2023/09/20 01:11:57;;;;;;;2.78;1.38;;;;;;;;;;4963824;28;20046;-63
2023/09/20 01:14:25;;;;;;;2.63;1.35;;;;;;;;;;4967914;28;20451;-64
2023/09/20 01:16:54;;;;;;;2.33;1.30;;;;;;;;;;4970349;28;20043;-64
2023/09/20 01:19:20;;;;;;;3.92;1.60;;;;;;;;;;4961946;28;20050;-63
2023/09/20 01:21:49;;;;;;;2.65;1.40;;;;;;;;;;4957379;28;20214;-63
2023/09/20 01:24:18;;;;;;;4.68;1.70;;;;;;;;;;4964000;28;20074;-63
2023/09/20 01:26:48;;;;;;;2.60;1.23;;;;;;;;;;4957291;28;20054;-63
2023/09/20 01:29:14;;;;;;;4.05;1.50;;;;;;;;;;4967286;28;20042;-64
2023/09/20 01:31:41;;;;;;;3.35;1.50;;;;;;;;;;4972940;28;20082;-63
2023/09/20 01:34:08;;;;;;;2.97;1.58;;;;;;;;;;4955927;28;20137;-63
2023/09/20 01:36:34;;;;;;;3.72;1.70;;;;;;;;;;4967651;28;20475;-64
2023/09/20 01:39:08;;;;;;;4.65;2.50;;;;;;;;;;4974127;28;20121;-64
2023/09/20 01:41:34;;;;;;;4.00;2.00;;;;;;;;;;4980228;28;20535;-62
2023/09/20 01:44:02;;;;;;;4.65;2.10;;;;;;;;;;4971091;28;20472;-63
2023/09/20 01:46:29;;;;;;;3.40;1.88;;;;;;;;;;4963341;28;20113;-62
2023/09/20 01:48:58;;;;;;;5.28;2.30;;;;;;;;;;4973018;28;20456;-64
2023/09/20 01:51:25;;;;;;;3.88;2.20;;;;;;;;;;4964231;28;20525;-64
2023/09/20 01:53:52;;;;;;;5.10;2.80;;;;;;;;;;4966828;28;20126;-64
2023/09/20 01:56:21;;;;;;;4.30;2.83;;;;;;;;;;4974712;28;20090;-64
2023/09/20 01:58:49;;;;;;;6.88;3.17;;;;;;;;;;4960177;28;20050;-63
2023/09/20 02:01:18;;;;;;;5.07;2.80;;;;;;;;;;4966171;28;20054;-64
2023/09/20 02:03:45;;;;;;;5.00;2.75;;;;;;;;;;4955285;28;20047;-64
2023/09/20 02:06:12;;;;;;;5.45;2.70;;;;;;;;;;4968648;28;20046;-64
2023/09/20 02:08:38;;;;;;;4.68;2.08;;;;;;;;;;4966011;28;20134;-63
2023/09/20 02:11:05;;;;;;;4.70;2.55;;;;;;;;;;4959221;28;20483;-64
2023/09/20 02:13:33;;;;;;;5.25;2.72;;;;;;;;;;4966781;28;20047;-63
2023/09/20 02:16:00;;;;;;;4.90;2.60;;;;;;;;;;4958622;28;20074;-64
2023/09/20 02:18:27;;;;;;;5.63;2.60;;;;;;;;;;4967117;28;20087;-64
2023/09/20 02:20:55;;;;;;;6.10;2.30;;;;;;;;;;4955073;28;20126;-64
2023/09/20 02:23:22;;;;;;;5.85;2.67;;;;;;;;;;4963520;28;20043;-63
2023/09/20 02:25:48;;;;;;;5.05;2.80;;;;;;;;;;4964760;28;20142;-63
2023/09/20 02:28:15;;;;;;;5.43;2.83;;;;;;;;;;4973974;28;20134;-63
2023/09/20 02:30:43;;;;;;;5.90;2.60;;;;;;;;;;4966101;28;20043;-63
2023/09/20 02:33:14;;;;;;;4.85;2.70;;;;;;;;;;4969153;28;20059;-63
2023/09/20 02:35:41;;;;;;;5.45;2.33;;;;;;;;;;4963429;28;20057;-64
2023/09/20 02:38:09;;;;;;;5.97;2.60;;;;;;;;;;4974086;28;20542;-64
2023/09/20 02:40:36;;;;;;;4.45;2.30;;;;;;;;;;4965854;28;20054;-65
2023/09/20 02:43:04;;;;;;;5.00;2.45;;;;;;;;;;4965746;28;20651;-65
2023/09/20 02:45:33;;;;;;;4.05;1.92;;;;;;;;;;4973984;28;20051;-63
2023/09/20 02:48:04;;;;;;;4.55;1.95;;;;;;;;;;4973054;28;20126;-62
2023/09/20 02:50:30;;;;;;;3.50;1.92;;;;;;;;;;4966240;28;20047;-65
2023/09/20 02:52:58;;;;;;;2.80;1.42;;;;;;;;;;4965750;28;20057;-64
2023/09/20 02:55:27;;;;;;;4.65;1.40;;;;;;;;;;4973547;28;20042;-64
2023/09/20 02:57:54;;;;;;;3.20;1.55;;;;;;;;;;4971849;28;20125;-64
2023/09/20 03:00:22;;;;;;;3.03;1.50;;;;;;;;;;4954207;28;20047;-64
2023/09/20 03:02:50;;;;;;;2.72;1.50;;;;;;;;;;4962032;28;20127;-64
2023/09/20 03:05:21;;;;;;;4.03;1.80;;;;;;;;;;4967893;28;20082;-64
2023/09/20 03:07:50;;;;;;;3.03;1.40;;;;;;;;;;4965950;28;20134;-63
2023/09/20 03:10:19;;;;;;;3.30;1.60;;;;;;;;;;4970602;28;20051;-65
2023/09/20 03:12:47;;;;;;;3.38;1.58;;;;;;;;;;4971973;28;20043;-63
2023/09/20 03:15:17;;;;;;;3.50;1.63;;;;;;;;;;4967324;28;20149;-64
2023/09/20 03:17:44;;;;;;;3.15;1.48;;;;;;;;;;4971797;28;20069;-65
2023/09/20 03:20:12;;;;;;;3.28;1.40;;;;;;;;;;4958719;28;20074;-64
2023/09/20 03:22:42;;;;;;;2.80;1.48;;;;;;;;;;4973096;28;20073;-65
2023/09/20 03:25:13;;;;;;;4.28;1.70;;;;;;;;;;4968573;28;20047;-66
2023/09/20 03:27:42;;;;;;;2.53;1.48;;;;;;;;;;4961675;28;20055;-65
2023/09/20 03:30:11;;;;;;;4.15;1.50;;;;;;;;;;4966433;28;20051;-64
2023/09/20 03:32:39;;;;;;;4.28;1.60;;;;;;;;;;4972688;28;20054;-64
2023/09/20 03:35:08;;;;;;;4.00;2.05;;;;;;;;;;4961869;28;20779;-64
2023/09/20 03:37:36;;;;;;;3.90;1.55;;;;;;;;;;4961625;28;20043;-65
2023/09/20 03:40:10;;;;;;;3.33;1.65;;;;;;;;;;4961089;28;20069;-63
2023/09/20 03:42:38;;;;;;;3.55;1.80;;;;;;;;;;4961410;28;20058;-62
2023/09/20 03:45:06;;;;;;;2.45;1.52;;;;;;;;;;4965463;28;20047;-63
2023/09/20 03:47:33;;;;;;;4.38;2.20;;;;;;;;;;4964744;28;20522;-63
2023/09/20 03:50:00;;;;;;;3.15;1.52;;;;;;;;;;4965218;28;20422;-63
2023/09/20 03:52:26;;;;;;;3.50;2.03;;;;;;;;;;4964686;28;20057;-62
2023/09/20 03:54:53;;;;;;;3.55;1.50;;;;;;;;;;4965050;28;20141;-65
2023/09/20 03:57:24;;;;;;;3.60;1.58;;;;;;;;;;4966998;28;20140;-65
2023/09/20 03:59:51;;;;;;;3.83;1.95;;;;;;;;;;4968626;28;20126;-63
2023/09/20 04:02:18;;;;;;;3.65;1.67;;;;;;;;;;4961827;28;20122;-64
2023/09/20 04:04:44;;;;;;;3.95;2.00;;;;;;;;;;4969645;28;20143;-63
2023/09/20 04:07:11;;;;;;;4.20;1.80;;;;;;;;;;4961669;28;20130;-66
2023/09/20 04:09:38;;;;;;;3.67;1.70;;;;;;;;;;4961601;28;20133;-65
2023/09/20 04:12:05;;;;;;;4.75;2.20;;;;;;;;;;4960443;28;20134;-65
2023/09/20 04:14:33;;;;;;;4.47;1.90;;;;;;;;;;4968928;28;20477;-64
2023/09/20 04:17:00;;;;;;;3.38;1.83;;;;;;;;;;4964804;28;20134;-64
2023/09/20 04:19:27;;;;;;;3.38;2.03;;;;;;;;;;4965624;28;20094;-64
2023/09/20 04:21:55;;;;;;;4.85;2.28;;;;;;;;;;4971574;28;20066;-64
2023/09/20 04:24:22;;;;;;;3.78;2.15;;;;;;;;;;4966117;28;20043;-64
2023/09/20 04:26:49;;;;;;;5.18;2.60;;;;;;;;;;4961326;28;20471;-63
2023/09/20 04:29:16;;;;;;;5.10;2.60;;;;;;;;;;4958277;28;20057;-64
2023/09/20 04:31:45;;;;;;;5.78;2.67;;;;;;;;;;4964488;28;20123;-64
2023/09/20 04:34:12;;;;;;;8.10;3.55;;;;;;;;;;4967701;28;20435;-65
2023/09/20 04:36:39;;;;;;;5.28;2.78;;;;;;;;;;4961713;28;20059;-64
2023/09/20 04:39:07;;;;;;;6.88;3.05;;;;;;;;;;4964389;28;20051;-64
2023/09/20 04:41:34;;;;;;;4.35;2.60;;;;;;;;;;4972288;28;20061;-64
2023/09/20 04:44:03;;;;;;;6.55;2.83;;;;;;;;;;4956742;28;20047;-63
2023/09/20 04:46:30;;;;;;;4.93;2.72;;;;;;;;;;4957157;28;20079;-65
2023/09/20 04:48:59;;;;;;;6.43;2.70;;;;;;;;;;4963669;28;20131;-64
2023/09/20 04:51:26;;;;;;;5.20;2.67;;;;;;;;;;4964247;28;20126;-64
2023/09/20 04:53:53;;;;;;;5.38;2.53;;;;;;;;;;4969846;28;20074;-64
2023/09/20 04:56:20;;;;;;;6.03;2.85;;;;;;;;;;4954398;28;20434;-64
2023/09/20 04:58:46;;;;;;;6.95;3.17;;;;;;;;;;4952941;28;20059;-64
2023/09/20 05:01:14;;;;;;;4.95;2.45;;;;;;;;;;4961065;28;20135;-64
2023/09/20 05:03:41;;;;;;;5.15;3.13;;;;;;;;;;4960927;28;20043;-64
2023/09/20 05:06:10;;;;;;;7.18;2.85;;;;;;;;;;4953022;28;20079;-63
2023/09/20 05:08:37;;;;;;;6.75;3.40;;;;;;;;;;4961301;28;20046;-66
2023/09/20 05:11:04;;;;;;;5.57;3.28;;;;;;;;;;4972095;28;20061;-65
2023/09/20 05:13:31;;;;;;;4.88;2.80;;;;;;;;;;4973200;28;20072;-65
2023/09/20 05:15:57;;;;;;;6.28;3.40;;;;;;;;;;4986960;28;20050;-66
2023/09/20 05:18:26;;;;;;;4.90;2.70;;;;;;;;;;4980230;28;20135;-64
2023/09/20 05:20:54;;;;;;;;;;;;;;;;;;4975351;28;20142;-64
2023/09/20 05:23:22;;;;;;;4.75;2.53;;;;;;;;;;4986578;28;20009;-63
2023/09/20 05:25:49;;;;;;;6.10;3.30;;;;;;;;;;4977490;28;20447;-64
2023/09/20 05:28:16;;;;;;;6.13;3.05;;;;;;;;;;4981211;28;20396;-64
2023/09/20 05:30:44;;;;;;;5.72;3.33;;;;;;;;;;4973201;28;20074;-65
2023/09/20 05:33:11;;;;;;;5.60;3.17;;;;;;;;;;4982308;28;20054;-67
2023/09/20 05:35:39;;;;;;;7.38;3.35;;;;;;;;;;4974455;28;20409;-67
2023/09/20 05:38:06;;;;;;;7.60;3.53;;;;;;;;;;4984643;28;20074;-64
2023/09/20 05:40:34;;;;;;;8.27;3.20;;;;;;;;;;4985329;28;20131;-65
2023/09/20 05:43:03;;;;;;;6.18;2.70;;;;;;;;;;4959196;28;20122;-65
2023/09/20 05:45:30;;;;;;;6.88;2.35;;;;;;;;;;4967178;28;20062;-64
2023/09/20 05:47:57;;;;;;;4.82;2.80;;;;;;;;;;4967077;28;20137;-66
2023/09/20 05:50:33;;;;;;;5.43;2.80;;;;;;;;;;4984058;28;20049;-65
2023/09/20 05:53:00;;;;;;;7.47;2.65;;;;;;;;;;4980351;28;20098;-64
2023/09/20 05:55:31;;;;;;;5.07;2.40;;;;;;;;;;4959894;28;20086;-65
2023/09/20 05:57:59;;;;;;;5.78;2.33;;;;;;;;;;4963688;28;20076;-63
2023/09/20 06:00:26;;;;;;;5.63;2.72;;;;;;;;;;4966994;28;20065;-65
2023/09/20 06:02:53;;;;;;;5.25;2.60;;;;;;;;;;4980589;28;20073;-65
2023/09/20 06:05:20;;;;;;;5.97;2.92;;;;;;;;;;4985023;28;20101;-65
2023/09/20 06:07:47;;;;;;;8.13;3.00;;;;;;;;;;4964544;28;20070;-65
2023/09/20 06:10:16;;;;;;;4.95;2.80;;;;;;;;;;4980517;28;20138;-65
2023/09/20 06:12:42;;;;;;;7.75;3.50;;;;;;;;;;4971424;28;20059;-64
2023/09/20 06:15:13;;;;;;;8.73;4.18;;;;;;;;;;4986811;28;20097;-64
2023/09/20 06:17:39;;;;;;;;;;;;;;;;;;4978572;28;20098;-64
2023/09/20 06:20:09;;;;;;;6.28;3.22;;;;;;;;;;4980363;28;20426;-63
2023/09/20 06:22:36;;;;;;;8.57;3.30;;;;;;;;;;4970732;28;20400;-63
2023/09/20 06:25:04;;;;;;;6.47;2.78;;;;;;;;;;4966928;28;20050;-65
2023/09/20 06:27:31;;;;;;;5.47;3.20;;;;;;;;;;4970408;28;20047;-67
2023/09/20 06:29:58;;;;;;;5.35;2.50;;;;;;;;;;4972246;28;20065;-66
2023/09/20 06:32:26;;;;;;;4.43;2.50;;;;;;;;;;4978161;28;20074;-65
2023/09/20 06:34:53;;;;;;;6.28;3.05;;;;;;;;;;4983100;28;20078;-65
2023/09/20 06:37:21;;;;;;;5.95;3.28;;;;;;;;;;4990025;28;20586;-63
2023/09/20 06:39:47;;;;;;;8.40;3.90;;;;;;;;;;4982641;28;20570;-64
2023/09/20 06:42:14;;;;;;;6.80;3.85;;;;;;;;;;4971251;28;20049;-65
2023/09/20 06:44:44;;;;;;;7.55;4.00;;;;;;;;;;4983575;28;20133;-63
2023/09/20 06:47:11;;;;;;;7.35;3.85;;;;;;;;;;4976584;28;20046;-64
2023/09/20 06:49:39;;;;;;;6.68;2.88;;;;;;;;;;4972393;28;20090;-64
2023/09/20 06:52:06;;;;;;;5.50;2.30;;;;;;;;;;4954825;28;20050;-63
2023/09/20 06:54:35;;;;;;;4.20;2.42;;;;;;;;;;4954269;28;20114;-63
2023/09/20 06:57:03;;;;;;;4.72;2.35;;;;;;;;;;4965855;28;20050;-64
2023/09/20 06:59:31;;;;;;;5.53;2.17;;;;;;;;;;4973311;28;20047;-63
2023/09/20 07:01:58;;;;;;;7.35;2.25;;;;;;;;;;4973444;28;20078;-63
2023/09/20 07:04:25;;;;;;;5.05;2.03;;;;;;;;;;4973411;28;20102;-65
2023/09/20 07:06:54;;;;;;;4.60;2.30;;;;;;;;;;4971072;28;20051;-65
2023/09/20 07:09:21;;;;;;;4.93;2.00;;;;;;;;;;4972826;28;20073;-64
2023/09/20 07:11:48;;;;;;;7.28;2.40;;;;;;;;;;4974324;28;20490;-66
2023/09/20 07:14:20;;;;;;;3.05;1.65;;;;;;;;;;4973208;28;20071;-65
2023/09/20 07:16:47;;;;;;;3.35;1.95;;;;;;;;;;4979280;28;20051;-65
2023/09/20 07:19:17;;;;;;;3.78;2.03;;;;;;;;;;4965593;28;20062;-66
2023/09/20 07:21:44;;;;;;;6.03;2.47;;;;;;;;;;4964221;28;20051;-63
2023/09/20 07:24:13;;;;;;;12.50;6.80;;;;;;;;;;4975847;28;20082;-66
2023/09/20 07:26:44;;;;;;;54.47;22.92;;;;;;;;;;4981473;28;20043;-63
2023/09/20 07:29:15;;;;;;;22.55;9.93;;;;;;;;;;4982432;28;20110;-63
2023/09/20 07:31:42;;;;;;;17.30;7.30;;;;;;;;;;4969132;28;20146;-64
2023/09/20 07:34:12;;;;;;;8.70;3.95;;;;;;;;;;4960758;28;20129;-61
2023/09/20 07:36:40;;;;;;;13.90;4.97;;;;;;;;;;4964811;28;20047;-62
2023/09/20 07:39:12;;;;;;;7.40;3.50;;;;;;;;;;4958659;28;20078;-63
2023/09/20 07:41:44;;;;;;;6.93;3.10;;;;;;;;;;4960665;28;20050;-63
2023/09/20 07:44:13;;;;;;;11.35;4.18;;;;;;;;;;4958780;28;20054;-61
2023/09/20 07:46:40;;;;;;;6.32;3.47;;;;;;;;;;4961145;28;20518;-63
2023/09/20 07:49:10;;;;;;;4.53;2.63;;;;;;;;;;4961294;28;20094;-62
2023/09/20 07:51:37;;;;;;;8.15;3.33;;;;;;;;;;4968478;28;20049;-61
2023/09/20 07:54:06;;;;;;;4.93;2.25;;;;;;;;;;4971168;28;20125;-64
2023/09/20 07:56:34;;;;;;;4.90;2.25;;;;;;;;;;4973700;28;20049;-63
2023/09/20 07:59:03;;;;;;;5.03;2.10;;;;;;;;;;4974387;28;20093;-62
2023/09/20 08:01:31;;;;;;;4.10;2.17;;;;;;;;;;4965752;28;20046;-62
2023/09/20 08:03:59;;;;;;;4.03;1.70;;;;;;;;;;4973069;28;20055;-62
2023/09/20 08:06:29;;;;;;;3.88;1.92;;;;;;;;;;4977147;28;20506;-62
2023/09/20 08:08:56;;;;;;;21.33;3.75;;;;;;;;;;4968243;28;20059;-63
2023/09/20 08:11:23;;;;;;;9.50;2.50;;;;;;;;;;4971589;28;20053;-64
2023/09/20 08:13:52;;;;;;;12.63;3.22;;;;;;;;;;4964386;28;20051;-63
2023/09/20 08:16:21;;;;;;;6.00;1.83;;;;;;;;;;4975795;28;20050;-64
2023/09/20 08:21:34;;;;;;;12.48;2.50;;;;;;;;;;4971913;28;20024;-62
2023/09/20 08:59:55;;;;;;;5.18;1.77;;;;;;;;;;4978699;28;20050;-63
2023/09/20 09:02:23;;;;;;;4.35;1.77;;;;;;;;;;4967302;28;20117;-65
2023/09/20 09:04:53;;;;;;;6.03;2.35;;;;;;;;;;4972655;28;20047;-64
2023/09/20 09:07:20;;;;;;;4.68;2.50;;;;;;;;;;4976595;28;20055;-63
2023/09/20 09:09:48;;;;;;;7.03;4.90;;;;;;;;;;4982636;28;20478;-64
2023/09/20 09:12:15;;;;;;;4.38;2.33;;;;;;;;;;4982614;28;20050;-64
2023/09/20 09:14:43;;;;;;;4.53;2.25;;;;;;;;;;4973633;28;20053;-65
2023/09/20 09:17:10;;;;;;;6.40;2.90;;;;;;;;;;4983777;28;20101;-64
2023/09/20 09:19:38;;;;;;;4.10;1.80;;;;;;;;;;4978903;28;20067;-64
2023/09/20 09:22:07;;;;;;;3.65;1.77;;;;;;;;;;4979651;28;20064;-64
2023/09/20 09:24:45;;;;;;;6.05;3.00;;;;;;;;;;4968337;28;20454;-64
2023/09/20 09:27:12;;;;;;;5.22;2.47;;;;;;;;;;4984148;28;20047;-65
2023/09/20 09:29:40;;;;;;;7.70;2.25;;;;;;;;;;4977610;28;20046;-65
2023/09/20 09:32:06;;;;;;;14.82;3.30;;;;;;;;;;4986443;28;20089;-64
2023/09/20 09:34:34;;;;;;;4.85;1.70;;;;;;;;;;4985765;28;20071;-65
2023/09/20 09:37:00;;;;;;;2.75;1.40;;;;;;;;;;4975538;28;20051;-64
2023/09/20 09:39:29;;;;;;;4.72;1.83;;;;;;;;;;4978604;28;20194;-65
2023/09/20 09:41:57;;;;;;;5.45;2.00;;;;;;;;;;4982983;28;20051;-64
2023/09/20 09:44:25;;;;;;;4.65;1.58;;;;;;;;;;4986577;28;20046;-65
2023/09/20 09:46:52;;;;;;;3.70;1.92;;;;;;;;;;4974359;28;20043;-63
2023/09/20 09:49:20;;;;;;;10.05;3.20;;;;;;;;;;4980125;28;20054;-61
2023/09/20 09:51:50;;;;;;;5.60;2.13;;;;;;;;;;4974653;28;20054;-64
2023/09/20 09:54:18;;;;;;;4.55;2.03;;;;;;;;;;4970754;28;20058;-62
2023/09/20 09:56:46;;;;;;;4.57;1.65;;;;;;;;;;4977437;28;20083;-64
2023/09/20 09:59:13;;;;;;;3.58;1.60;;;;;;;;;;4970289;28;20053;-62
2023/09/20 10:01:40;;;;;;;3.78;1.73;;;;;;;;;;4977787;28;20145;-64
2023/09/20 10:04:10;;;;;;;4.05;1.92;;;;;;;;;;4976440;28;20097;-64
2023/09/20 10:06:40;;;;;;;;;;;;;;;;;;4980611;28;20502;-64
2023/09/20 10:09:11;;;;;;;3.00;1.30;;;;;;;;;;4978661;28;20339;-64
2023/09/20 10:11:41;;;;;;;4.20;1.30;;;;;;;;;;4974772;28;20049;-64
2023/09/20 10:14:10;;;;;;;3.25;1.60;;;;;;;;;;4981202;28;20061;-65
2023/09/20 10:16:39;;;;;;;4.33;1.70;;;;;;;;;;4975294;28;20050;-65
2023/09/20 10:19:10;;;;;;;3.28;1.25;;;;;;;;;;4977937;28;20788;-63
2023/09/20 10:21:40;;;;;;;3.25;1.55;;;;;;;;;;4978729;28;20097;-64
2023/09/20 10:24:14;;;;;;;3.22;1.50;;;;;;;;;;4977274;28;20054;-64
2023/09/20 10:26:41;;;;;;;3.40;1.67;;;;;;;;;;4971974;28;20058;-62
2023/09/20 10:29:24;;;;;;;4.00;1.30;;;;;;;;;;4971561;28;20134;-65
2023/09/20 10:31:55;;;;;;;2.78;1.27;;;;;;;;;;4983191;28;20047;-65
2023/09/20 10:34:22;;;;;;;3.08;1.50;;;;;;;;;;4981515;28;20451;-64
2023/09/20 10:36:52;;;;;;;3.78;1.50;;;;;;;;;;4981729;28;20059;-64
2023/09/20 10:39:23;;;;;;;4.90;2.00;;;;;;;;;;4989273;28;20062;-65
2023/09/20 10:41:52;;;;;;;2.63;1.25;;;;;;;;;;4983051;28;20054;-65
2023/09/20 10:44:30;;;;;;;3.25;1.55;;;;;;;;;;4969083;28;20049;-65
2023/09/20 10:46:59;;;;;;;3.90;1.67;;;;;;;;;;4976516;28;20622;-66
2023/09/20 10:49:43;;;;;;;2.33;1.30;;;;;;;;;;4974642;28;20059;-64
2023/09/20 10:52:10;;;;;;;4.45;2.50;;;;;;;;;;4973795;28;20054;-64
2023/09/20 10:54:39;;;;;;;2.95;1.75;;;;;;;;;;4979608;28;20134;-65
2023/09/20 10:57:10;;;;;;;2.53;1.40;;;;;;;;;;4978056;28;20112;-65
2023/09/20 10:59:40;;;;;;;4.32;1.65;;;;;;;;;;4972738;28;20402;-64
2023/09/20 11:02:13;;;;;;;4.75;2.05;;;;;;;;;;4973907;28;20479;-70
2023/09/20 11:04:40;;;;;;;4.97;2.00;;;;;;;;;;4971248;28;20107;-66
2023/09/20 11:07:09;;;;;;;67.95;44.92;;;;;;;;;;4970121;28;20098;-67
2023/09/20 11:09:38;;;;;;;215.75;148.27;;;;;;;;;;4965579;28;20074;-68
2023/09/20 11:12:11;;;;;;;489.95;402.23;;;;;;;;;;4961568;28;20410;-67
2023/09/20 11:14:41;;;;;;;229.02;151.40;;;;;;;;;;4960166;28;20138;-63
2023/09/20 11:17:08;;;;;;;33.10;21.38;;;;;;;;;;4966463;28;20055;-64
2023/09/20 11:19:36;;;;;;;24.90;15.77;;;;;;;;;;4976984;28;20042;-64
2023/09/20 11:22:05;;;;;;;36.28;21.50;;;;;;;;;;4977754;28;20047;-63
2023/09/20 11:24:32;;;;;;;10.90;6.80;;;;;;;;;;4972801;28;20058;-62
2023/09/20 11:26:59;;;;;;;12.50;7.18;;;;;;;;;;4968720;28;20046;-63
2023/09/20 11:29:26;;;;;;;13.57;8.60;;;;;;;;;;4974521;28;20050;-63
2023/09/20 11:31:58;;;;;;;7.85;2.55;;;;;;;;;;4966544;28;20075;-63
2023/09/20 11:34:28;;;;;;;3.65;1.60;;;;;;;;;;4976418;28;20046;-63
2023/09/20 11:36:55;;;;;;;5.70;2.80;;;;;;;;;;4966832;28;20508;-63
2023/09/20 11:39:31;;;;;;;11.10;6.10;;;;;;;;;;4973446;28;20681;-63
2023/09/20 11:42:03;;;;;;;6.32;2.90;;;;;;;;;;4971603;28;20572;-64
2023/09/20 11:44:34;;;;;;;10.32;5.25;;;;;;;;;;4964862;28;20046;-64
2023/09/20 11:47:03;;;;;;;9.60;5.28;;;;;;;;;;4969257;28;20087;-63
2023/09/20 11:49:29;;;;;;;14.88;6.43;;;;;;;;;;4972587;28;20131;-63
2023/09/20 11:51:58;;;;;;;6.10;2.85;;;;;;;;;;4980789;28;20073;-64
2023/09/20 11:54:30;;;;;;;5.50;2.25;;;;;;;;;;4982877;28;20057;-63
2023/09/20 11:57:00;;;;;;;3.33;1.65;;;;;;;;;;4971837;28;20053;-64
2023/09/20 11:59:27;;;;;;;4.22;1.80;;;;;;;;;;4969604;28;20050;-64
2023/09/20 12:01:54;;;;;;;4.05;1.77;;;;;;;;;;4974785;28;20050;-64
2023/09/20 12:04:22;;;;;;;5.45;1.67;;;;;;;;;;4972763;28;20440;-64
2023/09/20 12:06:50;;;;;;;5.70;2.22;;;;;;;;;;4971882;28;20062;-64
2023/09/20 12:09:17;;;;;;;4.70;2.03;;;;;;;;;;4969188;28;20676;-64
2023/09/20 12:11:44;;;;;;;4.72;1.70;;;;;;;;;;4972555;28;20057;-64
2023/09/20 12:14:13;;;;;;;3.13;1.40;;;;;;;;;;4965462;28;20668;-63
2023/09/20 12:16:40;;;;;;;2.65;1.58;;;;;;;;;;4963452;28;20452;-65
2023/09/20 12:19:07;;;;;;;4.68;1.30;;;;;;;;;;4969730;28;20043;-63
2023/09/20 12:21:35;;;;;;;3.67;1.65;;;;;;;;;;4970437;28;20046;-64
2023/09/20 12:24:01;;;;;;;4.28;1.60;;;;;;;;;;4971914;28;20496;-64
2023/09/20 12:26:28;;;;;;;3.65;1.50;;;;;;;;;;4969873;28;20049;-63
2023/09/20 12:28:55;;;;;;;4.63;1.70;;;;;;;;;;4969492;28;20121;-64
2023/09/20 12:31:23;;;;;;;3.83;1.48;;;;;;;;;;4974662;28;20133;-64
2023/09/20 12:33:50;;;;;;;4.60;2.08;;;;;;;;;;4974178;28;20429;-63
2023/09/20 12:36:17;;;;;;;7.53;2.20;;;;;;;;;;4977134;28;20419;-63
2023/09/20 12:38:45;;;;;;;3.90;1.70;;;;;;;;;;4978693;28;20038;-64
2023/09/20 12:41:12;;;;;;;3.85;1.65;;;;;;;;;;4976369;28;20586;-64
2023/09/20 12:43:39;;;;;;;3.10;1.65;;;;;;;;;;4981539;28;20483;-64
2023/09/20 12:46:06;;;;;;;4.88;2.20;;;;;;;;;;4975014;28;20045;-64
2023/09/20 12:48:36;;;;;;;2.80;1.70;;;;;;;;;;4975638;28;20081;-64
2023/09/20 12:51:04;;;;;;;2.97;1.50;;;;;;;;;;4969697;28;20054;-64
2023/09/20 12:53:32;;;;;;;2.90;1.60;;;;;;;;;;4972660;28;20053;-63
2023/09/20 12:56:00;;;;;;;2.75;1.40;;;;;;;;;;4978906;28;20487;-64
2023/09/20 12:58:27;;;;;;;2.55;1.35;;;;;;;;;;4984958;28;20323;-64
2023/09/20 13:00:54;;;;;;;5.13;2.05;;;;;;;;;;4980844;28;20130;-62
2023/09/20 13:03:21;;;;;;;2.55;1.40;;;;;;;;;;4984473;28;20082;-64
2023/09/20 13:05:48;;;;;;;3.70;1.60;;;;;;;;;;4979295;28;20047;-64
2023/09/20 13:08:16;;;;;;;4.13;1.60;;;;;;;;;;4976737;28;20078;-64
2023/09/20 13:10:43;;;;;;;4.25;1.80;;;;;;;;;;4977838;28;20109;-64
2023/09/20 13:13:11;;;;;;;3.20;1.50;;;;;;;;;;4976802;28;20521;-64
2023/09/20 13:15:42;;;;;;;4.63;1.50;;;;;;;;;;4968940;28;20053;-64
2023/09/20 13:18:10;;;;;;;5.25;1.70;;;;;;;;;;4961481;28;20122;-64
2023/09/20 13:20:37;;;;;;;3.53;1.70;;;;;;;;;;4969289;28;20043;-63
2023/09/20 13:23:04;;;;;;;4.43;1.90;;;;;;;;;;4977120;28;20054;-65
2023/09/20 13:25:32;;;;;;;3.88;2.03;;;;;;;;;;4974196;28;20137;-64
2023/09/20 13:27:59;;;;;;;3.10;1.52;;;;;;;;;;4978034;28;20073;-63
2023/09/20 13:30:28;;;;;;;4.43;1.83;;;;;;;;;;4977695;28;20455;-63
2023/09/20 13:32:58;;;;;;;3.78;1.60;;;;;;;;;;4972651;28;20066;-64
2023/09/20 13:35:24;;;;;;;2.85;1.60;;;;;;;;;;4971808;28;20070;-65
2023/09/20 13:37:52;;;;;;;4.25;1.85;;;;;;;;;;4976323;28;20050;-63
2023/09/20 13:40:23;;;;;;;3.30;1.70;;;;;;;;;;4972369;28;20446;-63
2023/09/20 13:42:51;;;;;;;4.30;1.95;;;;;;;;;;4969450;28;20051;-64
2023/09/20 13:45:18;;;;;;;4.15;2.17;;;;;;;;;;4978386;28;20053;-64
2023/09/20 13:47:49;;;;;;;3.25;1.80;;;;;;;;;;4981143;28;20510;-63
2023/09/20 13:50:16;;;;;;;3.20;1.60;;;;;;;;;;4965305;28;20458;-63
2023/09/20 13:52:43;;;;;;;2.90;1.73;;;;;;;;;;4974868;28;20130;-64
2023/09/20 13:55:11;;;;;;;3.88;1.58;;;;;;;;;;4967316;28;20049;-64
2023/09/20 13:57:38;;;;;;;3.45;1.50;;;;;;;;;;4963791;28;20094;-63
2023/09/20 14:00:10;;;;;;;4.05;1.67;;;;;;;;;;4971162;28;20121;-65
2023/09/20 14:02:40;;;;;;;4.18;1.77;;;;;;;;;;4975485;28;20055;-64
2023/09/20 14:05:14;;;;;;;4.65;2.00;;;;;;;;;;4979068;28;20057;-65
2023/09/20 14:07:45;;;;;;;4.32;2.15;;;;;;;;;;4974284;28;20491;-63
2023/09/20 14:10:12;;;;;;;6.03;2.20;;;;;;;;;;4973332;28;20043;-63
2023/09/20 14:12:41;;;;;;;3.10;1.52;;;;;;;;;;4982968;28;20081;-63
2023/09/20 14:15:12;;;;;;;5.97;2.10;;;;;;;;;;4972466;28;20066;-63
2023/09/20 14:17:40;;;;;;;4.35;1.60;;;;;;;;;;4981466;28;20531;-63
2023/09/20 14:20:10;;;;;;;3.95;1.60;;;;;;;;;;4963957;28;20137;-63
2023/09/20 14:22:37;;;;;;;3.40;1.80;;;;;;;;;;4977609;28;20065;-63
2023/09/20 14:25:07;;;;;;;3.45;1.80;;;;;;;;;;4978200;28;20062;-64
2023/09/20 14:27:36;;;;;;;3.60;1.70;;;;;;;;;;4981024;28;20051;-62
2023/09/20 14:30:04;;;;;;;4.33;2.00;;;;;;;;;;4972946;28;20051;-63
2023/09/20 14:32:31;;;;;;;6.57;1.92;;;;;;;;;;4972064;28;20042;-63
2023/09/20 14:34:59;;;;;;;8.93;2.00;;;;;;;;;;4968109;28;20050;-63
2023/09/20 14:37:27;;;;;;;3.40;1.92;;;;;;;;;;4971323;28;20575;-64
2023/09/20 14:39:56;;;;;;;4.30;2.00;;;;;;;;;;4975914;28;20053;-64
2023/09/20 14:42:23;;;;;;;4.78;2.08;;;;;;;;;;4982234;28;20058;-64
2023/09/20 14:44:49;;;;;;;3.58;1.80;;;;;;;;;;4977192;28;20058;-64
2023/09/20 14:47:16;;;;;;;3.45;1.60;;;;;;;;;;4986875;28;20146;-64
2023/09/20 14:49:43;;;;;;;6.55;1.60;;;;;;;;;;4963208;28;20055;-64
2023/09/20 14:52:09;;;;;;;4.20;1.80;;;;;;;;;;4965029;28;20061;-64
2023/09/20 14:54:38;;;;;;;3.65;1.50;;;;;;;;;;4962137;28;20049;-62
2023/09/20 14:57:06;;;;;;;3.40;1.63;;;;;;;;;;4968767;28;20413;-63
2023/09/20 14:59:33;;;;;;;4.45;1.60;;;;;;;;;;4967782;28;20069;-63
2023/09/20 15:01:59;;;;;;;2.60;1.52;;;;;;;;;;4965688;28;20057;-63
2023/09/20 15:04:26;;;;;;;3.17;1.70;;;;;;;;;;4963960;28;20171;-63
2023/09/20 15:06:54;;;;;;;3.75;1.80;;;;;;;;;;4964907;28;20050;-63
2023/09/20 15:09:21;;;;;;;5.65;1.70;;;;;;;;;;4970240;28;20047;-63
2023/09/20 15:11:49;;;;;;;4.68;1.63;;;;;;;;;;4966545;28;20046;-62
2023/09/20 15:14:15;;;;;;;3.60;2.00;;;;;;;;;;4971597;28;20133;-63
2023/09/20 15:16:42;;;;;;;3.05;1.60;;;;;;;;;;4966570;28;20046;-63
2023/09/20 15:19:09;;;;;;;3.03;1.63;;;;;;;;;;4977420;28;20137;-63
2023/09/20 15:21:35;;;;;;;4.32;1.70;;;;;;;;;;4976569;28;20418;-63
2023/09/20 15:24:02;;;;;;;3.42;2.03;;;;;;;;;;4965773;28;20045;-65
2023/09/20 15:26:35;;;;;;;3.47;1.77;;;;;;;;;;4970575;28;20134;-63